Time;durP1;ratioP1;P1;durP2;ratioP2;P2;SDS_P1;SDS_P2;PMS_P1;PMS_P2;Temp;Humidity;BMP_temperature;BMP_pressure;BME280_temperature;BME280_humidity;BME280_pressure;Samples;Min_cycle;Max_cycle;Signal;HPM_P1;HPM_P2
2021/10/19 00:00:36;;;;;;;13.43;12.07;;;;;;;20.18;30.68;95412.25;5012512;28;20053;-57
2021/10/19 00:03:05;;;;;;;13.90;10.85;;;;;;;19.91;30.87;95416.13;5012289;28;20049;-57
2021/10/19 00:05:32;;;;;;;14.90;11.48;;;;;;;20.13;30.84;95426.50;5012677;28;20042;-56
2021/10/19 00:07:59;;;;;;;13.63;12.23;;;;;;;19.96;30.53;95426.56;5016131;28;20046;-57
2021/10/19 00:10:27;;;;;;;14.45;12.27;;;;;;;19.92;31.45;95426.44;5016543;28;20060;-59
2021/10/19 00:12:54;;;;;;;13.32;11.93;;;;;;;19.78;31.90;95425.88;5015828;28;20069;-59
2021/10/19 00:15:22;;;;;;;13.60;12.20;;;;;;;20.15;30.46;95424.28;5015022;28;20384;-56
2021/10/19 00:17:49;;;;;;;12.60;11.10;;;;;;;20.55;30.91;95426.56;5016516;28;20049;-56
2021/10/19 00:20:16;;;;;;;13.43;12.13;;;;;;;19.77;32.34;95426.19;5016187;28;20384;-57
2021/10/19 00:23:08;;;;;;;13.77;12.48;;;;;;;19.57;32.54;95428.44;5015767;28;20062;-57
2021/10/19 00:25:35;;;;;;;14.57;12.10;;;;;;;19.59;32.02;95423.59;5002593;28;20050;-59
2021/10/19 00:28:04;;;;;;;14.07;12.60;;;;;;;19.70;31.81;95427.47;4997161;28;20366;-57
2021/10/19 00:30:32;;;;;;;13.15;11.85;;;;;;;19.67;32.11;95429.97;4996499;28;20046;-58
2021/10/19 00:32:59;;;;;;;12.85;11.52;;;;;;;20.68;29.81;95430.06;4996505;28;20373;-59
2021/10/19 00:35:27;;;;;;;13.30;11.98;;;;;;;20.55;30.34;95427.34;5011001;28;20046;-58
2021/10/19 00:37:54;;;;;;;13.80;12.40;;;;;;;20.63;30.41;95434.50;5015422;28;20080;-58
2021/10/19 00:40:22;;;;;;;15.13;11.65;;;;;;;20.78;29.95;95429.69;4998396;28;20464;-58
2021/10/19 00:42:49;;;;;;;13.90;12.27;;;;;;;19.67;32.52;95430.75;5009642;28;20045;-58
2021/10/19 00:45:16;;;;;;;13.80;11.75;;;;;;;19.61;32.48;95426.72;5008725;28;20057;-58
2021/10/19 00:48:01;;;;;;;12.55;11.10;;;;;;;19.38;33.03;95426.13;5010536;28;20054;-56
2021/10/19 00:50:29;;;;;;;16.20;13.18;;;;;;;19.49;32.88;95423.91;5015718;28;20058;-58
2021/10/19 00:52:57;;;;;;;13.18;11.85;;;;;;;19.98;31.70;95424.38;5015640;28;20053;-57
2021/10/19 00:55:24;;;;;;;13.18;11.88;;;;;;;19.95;31.44;95425.00;5003126;28;20061;-57
2021/10/19 00:57:51;;;;;;;13.48;12.18;;;;;;;19.98;31.49;95424.38;5003471;28;20046;-60
2021/10/19 01:00:19;;;;;;;13.95;12.65;;;;;;;19.65;31.96;95427.63;5015602;28;20049;-58
2021/10/19 01:02:47;;;;;;;14.13;12.63;;;;;;;19.26;33.07;95425.25;5003233;28;20050;-58
2021/10/19 01:05:14;;;;;;;14.35;12.85;;;;;;;19.47;32.40;95423.44;5007797;28;20471;-59
2021/10/19 01:07:42;;;;;;;13.07;11.77;;;;;;;19.07;33.02;95429.00;5015320;28;20053;-58
2021/10/19 01:10:10;;;;;;;13.38;11.93;;;;;;;19.03;32.35;95422.00;5015453;28;20042;-57
2021/10/19 01:12:39;;;;;;;12.85;11.55;;;;;;;19.32;31.27;95421.31;5009338;28;20057;-58
2021/10/19 01:15:14;;;;;;;12.65;11.30;;;;;;;19.30;31.17;95415.56;5015096;28;20440;-61
2021/10/19 01:17:49;;;;;;;13.40;11.20;;;;;;;19.02;31.69;95421.22;5014899;28;20053;-62
2021/10/19 01:20:27;;;;;;;13.73;11.30;;;;;;;19.10;31.09;95423.06;5015369;28;20053;-60
2021/10/19 01:22:55;;;;;;;14.00;11.70;;;;;;;19.26;30.91;95426.00;5015425;28;20393;-58
2021/10/19 01:25:24;;;;;;;12.05;10.48;;;;;;;19.13;30.83;95415.56;5014683;28;20061;-59
2021/10/19 01:27:54;;;;;;;11.45;10.13;;;;;;;18.97;30.57;95413.41;5014788;28;20049;-64
2021/10/19 01:30:22;;;;;;;10.90;9.80;;;;;;;18.60;31.68;95414.03;5014867;28;20061;-58
2021/10/19 01:32:49;;;;;;;11.07;9.90;;;;;;;18.89;31.19;95419.50;5014929;28;20076;-62
2021/10/19 01:35:17;;;;;;;13.00;10.25;;;;;;;18.55;31.30;95422.91;5014411;28;20053;-61
2021/10/19 01:37:44;;;;;;;11.05;9.68;;;;;;;18.76;31.10;95412.50;5014510;28;20050;-57
2021/10/19 01:40:16;;;;;;;11.07;9.13;;;;;;;18.66;31.50;95413.56;5014786;28;20409;-62
2021/10/19 01:42:43;;;;;;;11.43;8.90;;;;;;;20.62;27.55;95419.66;5012034;28;20053;-59
2021/10/19 01:45:15;;;;;;;11.40;9.80;;;;;;;18.72;30.84;95419.50;5005607;28;20049;-59
2021/10/19 01:47:43;;;;;;;9.65;8.65;;;;;;;19.08;29.96;95414.66;5005281;28;20440;-58
2021/10/19 01:50:11;;;;;;;10.68;9.00;;;;;;;19.27;29.54;95419.63;5014766;28;20053;-60
2021/10/19 01:52:39;;;;;;;10.23;8.63;;;;;;;19.81;28.80;95427.13;5013627;28;20050;-61
2021/10/19 01:55:07;;;;;;;9.15;8.25;;;;;;;19.91;28.59;95429.41;5007051;28;20041;-56
2021/10/19 01:57:35;;;;;;;8.55;7.65;;;;;;;19.55;28.88;95432.53;5007164;28;20046;-57
2021/10/19 02:00:05;;;;;;;9.70;7.68;;;;;;;19.52;28.76;95423.28;5014645;28;20334;-59
2021/10/19 02:02:41;;;;;;;8.82;7.60;;;;;;;18.97;29.56;95426.66;5007814;28;20074;-57
2021/10/19 02:05:10;;;;;;;7.65;6.85;;;;;;;20.96;26.38;95425.00;5003723;28;20058;-59
2021/10/19 02:07:37;;;;;;;8.50;7.20;;;;;;;18.86;29.65;95422.78;4998080;28;20045;-57
2021/10/19 02:10:06;;;;;;;8.05;7.25;;;;;;;19.39;28.58;95429.56;5029792;28;20048;-59
2021/10/19 02:12:34;;;;;;;8.10;6.90;;;;;;;19.85;28.10;95425.38;5013577;28;20062;-59
2021/10/19 02:15:01;;;;;;;8.52;6.95;;;;;;;19.75;28.97;95423.06;5014832;28;20065;-56
2021/10/19 02:17:28;;;;;;;8.60;6.85;;;;;;;19.40;28.81;95425.81;5013605;28;20057;-57
2021/10/19 02:19:55;;;;;;;10.43;7.43;;;;;;;20.09;27.60;95424.81;5013952;28;20056;-57
2021/10/19 02:22:23;;;;;;;9.43;7.38;;;;;;;19.91;27.89;95435.50;5013860;28;20041;-59
2021/10/19 02:24:50;;;;;;;9.70;8.38;;;;;;;18.70;29.91;95425.09;5011632;28;20057;-57
2021/10/19 02:27:17;;;;;;;12.90;9.55;;;;;;;19.06;29.28;95426.66;4994446;28;20049;-57
2021/10/19 02:29:44;;;;;;;9.57;7.88;;;;;;;19.86;28.13;95429.59;5013132;28;20064;-57
2021/10/19 02:32:11;;;;;;;10.10;8.93;;;;;;;18.91;29.64;95429.78;5013842;28;20050;-57
2021/10/19 02:34:38;;;;;;;11.50;9.38;;;;;;;19.07;29.54;95422.91;5014031;28;20046;-57
2021/10/19 02:37:05;;;;;;;8.18;7.25;;;;;;;19.93;27.45;95428.00;5013655;28;20073;-59
2021/10/19 02:39:32;;;;;;;9.32;8.10;;;;;;;18.93;28.96;95433.66;5013388;28;20050;-62
2021/10/19 02:41:59;;;;;;;8.93;7.78;;;;;;;19.71;28.01;95425.59;5012377;28;20367;-59
2021/10/19 02:44:26;;;;;;;9.18;7.93;;;;;;;19.07;28.87;95434.31;5005994;28;20050;-58
2021/10/19 02:46:53;;;;;;;9.45;8.10;;;;;;;18.36;30.38;95435.66;5001748;28;20042;-55
2021/10/19 02:49:20;;;;;;;9.13;7.90;;;;;;;19.22;28.92;95426.94;4993834;28;20483;-56
2021/10/19 02:51:47;;;;;;;10.82;7.72;;;;;;;19.51;28.33;95445.59;4993691;28;20050;-56
2021/10/19 02:54:14;;;;;;;8.27;7.10;;;;;;;19.76;28.17;95448.50;5001331;28;20049;-58
2021/10/19 02:56:41;;;;;;;9.60;7.38;;;;;;;18.79;29.56;95446.31;4995201;28;20461;-55
2021/10/19 02:59:08;;;;;;;10.40;7.45;;;;;;;18.49;29.92;95446.09;4993778;28;20050;-59
2021/10/19 03:01:35;;;;;;;8.05;7.05;;;;;;;18.26;30.45;95447.31;4993903;28;20050;-59
2021/10/19 03:04:02;;;;;;;8.32;7.20;;;;;;;19.63;28.01;95445.75;4999696;28;20456;-58
2021/10/19 03:06:29;;;;;;;8.25;6.78;;;;;;;18.44;30.36;95454.19;5013443;28;20487;-56
2021/10/19 03:08:57;;;;;;;9.38;7.10;;;;;;;18.34;30.52;95453.69;5013461;28;20045;-56
2021/10/19 03:11:24;;;;;;;8.25;7.05;;;;;;;19.14;29.11;95448.94;5012159;28;20049;-58
2021/10/19 03:13:51;;;;;;;8.32;7.28;;;;;;;18.94;29.54;95451.13;5013132;28;20065;-56
2021/10/19 03:16:19;;;;;;;7.75;6.85;;;;;;;19.28;28.47;95457.50;4996375;28;20073;-57
2021/10/19 03:18:49;;;;;;;9.45;7.63;;;;;;;18.75;29.93;95455.97;4993473;28;20042;-59
2021/10/19 03:21:16;;;;;;;9.70;7.53;;;;;;;18.80;29.44;95461.13;4993218;28;20503;-58
2021/10/19 03:23:44;;;;;;;8.27;7.35;;;;;;;19.25;28.42;95452.81;4995094;28;20056;-57
2021/10/19 03:26:12;;;;;;;12.82;7.30;;;;;;;19.53;27.96;95467.31;4998875;28;20050;-60
2021/10/19 03:28:40;;;;;;;10.57;6.90;;;;;;;19.28;28.57;95462.81;4993483;28;20061;-57
2021/10/19 03:31:07;;;;;;;9.70;7.45;;;;;;;18.52;30.21;95459.81;4992999;28;20053;-56
2021/10/19 03:33:34;;;;;;;9.23;6.93;;;;;;;19.28;28.21;95454.84;4994434;28;20057;-60
2021/10/19 03:36:01;;;;;;;7.40;6.70;;;;;;;20.29;27.25;95456.69;4998457;28;20050;-58
2021/10/19 03:38:28;;;;;;;9.70;6.80;;;;;;;18.71;29.65;95455.00;4991695;28;20061;-57
2021/10/19 03:40:55;;;;;;;9.20;7.28;;;;;;;18.76;29.34;95460.19;4992932;28;20120;-61
2021/10/19 03:43:22;;;;;;;9.32;7.28;;;;;;;19.02;28.96;95460.19;5012820;28;20057;-59
2021/10/19 03:45:49;;;;;;;8.60;7.05;;;;;;;19.46;28.13;95455.59;5008286;28;20378;-58
2021/10/19 03:48:16;;;;;;;9.45;7.47;;;;;;;18.33;30.08;95460.09;4992969;28;20449;-56
2021/10/19 03:50:43;;;;;;;8.20;7.28;;;;;;;18.74;29.41;95462.38;4993196;28;20057;-61
2021/10/19 03:53:11;;;;;;;10.02;6.70;;;;;;;19.58;27.82;95458.41;4993023;28;20046;-61
2021/10/19 03:55:38;;;;;;;7.90;6.80;;;;;;;19.52;28.03;95454.34;5010291;28;20053;-57
2021/10/19 03:58:05;;;;;;;8.32;6.90;;;;;;;18.37;29.93;95459.16;5012636;28;20049;-56
2021/10/19 04:00:33;;;;;;;7.93;6.88;;;;;;;19.29;28.31;95453.75;5012464;28;20050;-56
2021/10/19 04:03:00;;;;;;;8.57;6.70;;;;;;;19.38;28.16;95457.16;5012505;28;20042;-58
2021/10/19 04:05:27;;;;;;;7.78;7.00;;;;;;;19.22;28.65;95461.41;5012076;28;20053;-58
2021/10/19 04:07:54;;;;;;;8.35;7.22;;;;;;;18.67;29.53;95469.97;5012584;28;20353;-57
2021/10/19 04:10:23;;;;;;;9.88;7.28;;;;;;;19.50;27.94;95472.41;5012552;28;20053;-57
2021/10/19 04:12:50;;;;;;;9.93;6.50;;;;;;;21.11;25.60;95472.25;5009972;28;20441;-57
2021/10/19 04:15:17;;;;;;;9.07;7.00;;;;;;;19.36;28.23;95475.25;5006567;28;20058;-56
2021/10/19 04:17:44;;;;;;;10.70;7.10;;;;;;;19.24;28.45;95475.88;5007285;28;20050;-56
2021/10/19 04:20:11;;;;;;;9.18;6.93;;;;;;;18.72;29.22;95475.13;4992867;28;20437;-58
2021/10/19 04:22:39;;;;;;;8.75;7.43;;;;;;;20.09;27.18;95481.31;5012098;28;20046;-56
2021/10/19 04:25:07;;;;;;;8.10;7.30;;;;;;;19.09;28.50;95479.03;5004401;28;20060;-58
2021/10/19 04:27:34;;;;;;;9.43;7.40;;;;;;;18.22;30.12;95478.13;4996799;28;20049;-58
2021/10/19 04:30:01;;;;;;;7.88;6.97;;;;;;;18.34;30.07;95485.47;4992563;28;20373;-56
2021/10/19 04:32:28;;;;;;;8.10;7.15;;;;;;;18.71;29.74;95484.94;4993020;28;20061;-59
2021/10/19 04:34:55;;;;;;;8.35;7.40;;;;;;;18.91;29.05;95478.25;5002840;28;20735;-58
2021/10/19 04:37:22;;;;;;;8.27;7.07;;;;;;;18.41;30.35;95485.78;5012219;28;20057;-57
2021/10/19 04:39:49;;;;;;;9.35;7.30;;;;;;;18.00;31.23;95492.22;5012078;28;20042;-57
2021/10/19 04:42:16;;;;;;;8.52;7.38;;;;;;;17.87;31.72;95488.56;5005488;28;20388;-62
2021/10/19 04:44:45;;;;;;;11.35;7.85;;;;;;;17.97;31.23;95492.06;5002711;28;20050;-55
2021/10/19 04:47:12;;;;;;;9.68;7.97;;;;;;;17.59;31.86;95492.44;4993416;28;20046;-57
2021/10/19 04:49:39;;;;;;;12.57;8.13;;;;;;;17.40;32.50;95489.22;4992612;28;20365;-56
2021/10/19 04:52:06;;;;;;;10.27;7.40;;;;;;;17.88;32.16;95497.28;4992686;28;20054;-58
2021/10/19 04:54:33;;;;;;;10.23;7.55;;;;;;;17.48;32.15;95504.38;5001558;28;20060;-58
2021/10/19 04:57:00;;;;;;;11.57;8.05;;;;;;;17.20;32.97;95507.13;5015287;28;20061;-60
2021/10/19 04:59:27;;;;;;;11.43;7.63;;;;;;;17.42;32.88;95518.75;5015508;28;20050;-57
2021/10/19 05:01:55;;;;;;;10.95;7.50;;;;;;;18.49;30.81;95509.66;5010401;28;20053;-57
2021/10/19 05:04:22;;;;;;;11.73;7.60;;;;;;;17.91;32.94;95514.41;5014194;28;20054;-56
2021/10/19 05:06:49;;;;;;;9.45;7.18;;;;;;;18.14;33.37;95521.19;5015405;28;20365;-59
2021/10/19 05:09:16;;;;;;;13.52;8.68;;;;;;;18.58;31.68;95527.41;5016181;28;20060;-59
2021/10/19 05:11:43;;;;;;;12.38;9.50;;;;;;;18.19;31.94;95526.34;5014668;28;20060;-57
2021/10/19 05:14:10;;;;;;;16.02;10.07;;;;;;;18.23;34.10;95532.63;5015559;28;20058;-57
2021/10/19 05:16:37;;;;;;;14.27;9.68;;;;;;;17.77;33.71;95536.44;5015430;28;20082;-55
2021/10/19 05:19:04;;;;;;;15.73;9.82;;;;;;;18.17;33.48;95545.19;5015652;28;20054;-56
2021/10/19 05:21:32;;;;;;;15.82;10.40;;;;;;;18.52;32.73;95545.31;5007193;28;20057;-55
2021/10/19 05:24:00;;;;;;;14.55;9.73;;;;;;;18.44;33.21;95541.53;4999704;28;20052;-55
2021/10/19 05:26:27;;;;;;;14.15;9.43;;;;;;;18.79;32.69;95545.09;5015261;28;20057;-56
2021/10/19 05:28:54;;;;;;;15.95;10.10;;;;;;;19.04;31.52;95543.56;5015628;28;20064;-64
2021/10/19 05:31:21;;;;;;;16.55;8.82;;;;;;;19.33;32.15;95547.47;5014785;28;20045;-56
2021/10/19 05:33:48;;;;;;;12.00;9.20;;;;;;;18.88;33.00;95555.72;5014771;28;20042;-58
2021/10/19 05:36:15;;;;;;;14.77;9.68;;;;;;;19.07;33.04;95561.50;5014771;28;20786;-57
2021/10/19 05:38:43;;;;;;;14.15;8.70;;;;;;;18.86;33.39;95573.78;5014813;28;20081;-65
2021/10/19 05:41:10;;;;;;;12.75;9.13;;;;;;;19.06;33.44;95565.25;5014061;28;20065;-58
2021/10/19 05:43:37;;;;;;;14.70;9.60;;;;;;;19.18;33.52;95571.78;5014549;28;20049;-59
2021/10/19 05:46:04;;;;;;;15.60;9.25;;;;;;;19.05;33.58;95571.63;5014634;28;20046;-68
2021/10/19 05:48:31;;;;;;;23.73;9.73;;;;;;;19.36;32.86;95583.97;5015535;28;20433;-57
2021/10/19 05:50:58;;;;;;;20.38;10.80;;;;;;;19.59;32.76;95582.75;5015314;28;20452;-62
2021/10/19 05:53:25;;;;;;;17.95;10.40;;;;;;;19.59;32.79;95572.13;5014969;28;20053;-58
2021/10/19 05:55:52;;;;;;;16.02;9.50;;;;;;;19.88;33.54;95582.06;5013691;28;20042;-56
2021/10/19 05:58:19;;;;;;;16.05;11.50;;;;;;;20.40;31.80;95573.19;4995261;28;20101;-59
2021/10/19 06:00:46;;;;;;;19.23;11.77;;;;;;;20.48;30.61;95575.03;4995369;28;20053;-59
2021/10/19 06:03:13;;;;;;;15.38;10.07;;;;;;;20.63;31.23;95587.78;4995089;28;20053;-63
2021/10/19 06:05:41;;;;;;;14.60;10.60;;;;;;;20.45;30.78;95581.00;5014176;28;20457;-60
2021/10/19 06:08:08;;;;;;;15.02;9.95;;;;;;;21.08;30.34;95584.56;5014498;28;20049;-57
2021/10/19 06:10:36;;;;;;;11.20;9.23;;;;;;;20.94;30.29;95582.94;5014645;28;20054;-62
2021/10/19 06:13:03;;;;;;;11.10;8.50;;;;;;;21.35;29.62;95576.13;5042126;28;20050;-64
2021/10/19 06:15:30;;;;;;;11.73;8.40;;;;;;;21.66;28.27;95594.31;5009510;28;20049;-65
2021/10/19 06:17:57;;;;;;;12.05;9.25;;;;;;;21.25;28.12;95603.09;5014205;28;20054;-58
2021/10/19 06:20:24;;;;;;;9.88;8.60;;;;;;;21.23;28.88;95599.94;5013867;28;20050;-60
2021/10/19 06:22:52;;;;;;;11.80;9.10;;;;;;;21.50;28.74;95598.66;5014071;28;20046;-57
2021/10/19 06:25:19;;;;;;;10.85;8.68;;;;;;;21.64;27.71;95599.19;5013252;28;20052;-59
2021/10/19 06:27:47;;;;;;;10.65;8.10;;;;;;;21.90;27.53;95601.63;5001417;28;20085;-57
2021/10/19 06:30:14;;;;;;;15.07;11.68;;;;;;;21.77;27.44;95598.13;4994215;28;20077;-59
2021/10/19 06:32:41;;;;;;;11.52;9.93;;;;;;;21.43;27.74;95604.53;4994452;28;20473;-62
2021/10/19 06:35:09;;;;;;;13.55;9.75;;;;;;;21.29;27.80;95608.53;5005289;28;20050;-60
2021/10/19 06:37:37;;;;;;;12.82;10.35;;;;;;;21.66;27.43;95604.19;5012679;28;20228;-64
2021/10/19 06:40:06;;;;;;;11.05;9.80;;;;;;;21.51;28.74;95601.00;5013782;28;20049;-59
2021/10/19 06:42:34;;;;;;;10.40;8.57;;;;;;;21.68;28.49;95604.63;5013342;28;20054;-57
2021/10/19 06:45:01;;;;;;;10.07;9.00;;;;;;;21.82;26.93;95610.44;5012992;28;20058;-61
2021/10/19 06:47:29;;;;;;;12.90;9.50;;;;;;;21.87;27.14;95604.94;5013881;28;20038;-59
2021/10/19 06:49:57;;;;;;;10.02;8.77;;;;;;;21.71;27.28;95615.41;5014171;28;20061;-60
2021/10/19 06:52:24;;;;;;;9.80;8.80;;;;;;;21.62;27.64;95611.28;5013732;28;20052;-60
2021/10/19 06:54:51;;;;;;;12.73;10.45;;;;;;;21.77;28.01;95613.31;5013034;28;20056;-56
2021/10/19 06:57:18;;;;;;;15.73;11.68;;;;;;;21.55;27.91;95612.56;5013425;28;20061;-61
2021/10/19 06:59:45;;;;;;;11.57;10.35;;;;;;;21.67;28.82;95625.16;5013245;28;20049;-58
2021/10/19 07:02:12;;;;;;;14.55;10.35;;;;;;;21.74;28.36;95621.97;5012714;28;20384;-69
2021/10/19 07:04:40;;;;;;;12.23;9.73;;;;;;;21.69;27.36;95628.25;5013192;28;20049;-61
2021/10/19 07:07:07;;;;;;;10.23;9.13;;;;;;;21.54;28.22;95632.28;4995728;28;20057;-64
2021/10/19 07:09:34;;;;;;;13.23;10.85;;;;;;;22.00;28.40;95627.81;4993835;28;20054;-63
2021/10/19 07:12:03;;;;;;;13.18;10.05;;;;;;;22.07;27.65;95624.66;5011594;28;20058;-61
2021/10/19 07:14:30;;;;;;;15.73;10.45;;;;;;;21.91;27.82;95623.69;5013033;28;20049;-66
2021/10/19 07:16:58;;;;;;;13.38;10.57;;;;;;;21.82;27.75;95621.09;5013320;28;20057;-61
2021/10/19 07:19:25;;;;;;;11.43;9.27;;;;;;;22.29;28.80;95632.25;5013227;28;20080;-63
2021/10/19 07:21:52;;;;;;;11.18;9.48;;;;;;;22.34;27.68;95625.94;5013171;28;20341;-64
2021/10/19 07:24:19;;;;;;;12.40;9.18;;;;;;;22.72;27.32;95628.31;5012303;28;20065;-58
2021/10/19 07:26:46;;;;;;;12.70;9.60;;;;;;;22.53;26.38;95628.06;5012924;28;20049;-58
2021/10/19 07:29:13;;;;;;;11.05;9.23;;;;;;;22.67;26.60;95628.56;5012957;28;20045;-60
2021/10/19 07:31:40;;;;;;;13.68;10.07;;;;;;;23.23;26.30;95629.56;5002894;28;20050;-59
2021/10/19 07:34:09;;;;;;;10.45;9.25;;;;;;;23.01;26.91;95622.78;4999557;28;20050;-63
2021/10/19 07:36:36;;;;;;;10.40;9.23;;;;;;;22.91;26.14;95627.81;5012681;28;20045;-60
2021/10/19 07:39:04;;;;;;;13.77;9.68;;;;;;;22.58;26.94;95622.53;5013052;28;20050;-60
2021/10/19 07:41:31;;;;;;;10.57;9.57;;;;;;;22.58;26.79;95620.63;5012322;28;20045;-58
2021/10/19 07:43:58;;;;;;;12.32;9.15;;;;;;;23.01;27.11;95627.34;5012803;28;20050;-57
2021/10/19 07:46:25;;;;;;;11.20;10.02;;;;;;;23.33;26.87;95620.28;5012848;28;20045;-59
2021/10/19 07:48:52;;;;;;;12.38;9.75;;;;;;;23.03;27.86;95617.13;5012834;28;20052;-57
2021/10/19 07:51:19;;;;;;;12.18;9.32;;;;;;;23.46;27.10;95624.50;5012531;28;20050;-59
2021/10/19 07:53:47;;;;;;;11.68;9.10;;;;;;;23.35;26.62;95616.19;5012506;28;20087;-59
2021/10/19 07:56:16;;;;;;;12.43;8.70;;;;;;;23.49;25.95;95631.06;5012465;28;20089;-58
2021/10/19 07:58:43;;;;;;;12.50;9.05;;;;;;;23.94;26.55;95620.91;4998496;28;20054;-59
2021/10/19 08:01:10;;;;;;;10.27;8.90;;;;;;;23.72;26.56;95616.13;5001548;28;20504;-61
2021/10/19 08:03:38;;;;;;;10.35;9.02;;;;;;;23.65;26.55;95608.66;5012606;28;20052;-57
2021/10/19 08:06:05;;;;;;;10.98;9.00;;;;;;;23.65;25.31;95621.22;5013170;28;20045;-61
2021/10/19 08:08:34;;;;;;;11.50;9.35;;;;;;;24.08;26.52;95620.50;5012561;28;20038;-65
2021/10/19 08:11:01;;;;;;;12.63;9.30;;;;;;;24.06;25.63;95612.06;5006043;28;20054;-63
2021/10/19 08:13:28;;;;;;;9.90;8.90;;;;;;;24.29;25.63;95614.97;5011409;28;20089;-60
2021/10/19 08:15:55;;;;;;;11.23;8.15;;;;;;;24.69;25.17;95611.34;5012559;28;20049;-64
2021/10/19 08:18:23;;;;;;;10.52;8.73;;;;;;;24.20;25.38;95616.97;5012417;28;20053;-60
2021/10/19 08:20:50;;;;;;;10.07;9.05;;;;;;;24.06;25.45;95616.63;5012375;28;20054;-59
2021/10/19 08:23:17;;;;;;;12.38;9.25;;;;;;;24.11;25.13;95614.47;5012194;28;20771;-60
2021/10/19 08:25:44;;;;;;;9.63;8.05;;;;;;;24.56;25.30;95616.81;5012727;28;20053;-58
2021/10/19 08:28:21;;;;;;;13.88;9.48;;;;;;;24.86;25.44;95622.47;5012823;28;20038;-59
2021/10/19 08:30:49;;;;;;;11.35;8.73;;;;;;;24.94;24.92;95623.41;5010872;28;20453;-57
2021/10/19 08:33:17;;;;;;;13.77;8.48;;;;;;;25.05;25.05;95619.13;5010430;28;20483;-60
2021/10/19 08:35:44;;;;;;;10.18;9.00;;;;;;;24.24;24.29;95618.66;5015910;28;20449;-63
2021/10/19 08:38:13;;;;;;;10.48;8.82;;;;;;;24.18;24.52;95616.56;5016151;28;20060;-64
2021/10/19 08:40:41;;;;;;;9.68;6.85;;;;;;;24.60;21.78;95606.97;5015884;28;20045;-61
2021/10/19 08:43:09;;;;;;;9.73;7.22;;;;;;;25.58;22.76;95613.34;5015046;28;20057;-61
2021/10/19 08:45:36;;;;;;;7.97;7.15;;;;;;;24.79;22.79;95613.53;5015823;28;20046;-55
2021/10/19 08:48:07;;;;;;;9.57;6.75;;;;;;;24.52;23.73;95610.59;5015334;28;20041;-59
2021/10/19 08:50:34;;;;;;;7.78;6.97;;;;;;;25.21;22.08;95609.16;5015373;28;20045;-62
2021/10/19 08:53:01;;;;;;;8.20;7.00;;;;;;;26.01;22.06;95606.94;5012495;28;20054;-63
2021/10/19 08:55:28;;;;;;;6.88;6.20;;;;;;;25.67;22.61;95609.38;5011050;28;20046;-59
2021/10/19 08:58:02;;;;;;;7.60;5.90;;;;;;;24.91;21.37;95618.75;5015713;28;20044;-57
2021/10/19 09:00:30;;;;;;;8.60;6.32;;;;;;;25.13;22.33;95615.47;5015718;28;20061;-63
2021/10/19 09:02:57;;;;;;;6.35;5.75;;;;;;;24.39;21.15;95603.00;5006798;28;20361;-62
2021/10/19 09:05:27;;;;;;;6.45;5.82;;;;;;;24.86;21.45;95605.66;5009667;28;20073;-66
2021/10/19 09:08:09;;;;;;;8.05;5.78;;;;;;;25.48;22.29;95598.63;5015794;28;20350;-62
2021/10/19 09:10:41;;;;;;;7.13;6.13;;;;;;;25.38;22.62;95588.47;5007163;28;20061;-60
2021/10/19 09:13:12;;;;;;;16.55;14.48;;;;;;;24.74;21.88;95597.75;5015133;28;20061;-61
2021/10/19 09:15:42;;;;;;;6.57;5.97;;;;;;;24.26;23.24;95604.94;5002196;28;20050;-61
2021/10/19 09:18:12;;;;;;;6.60;5.90;;;;;;;24.98;21.83;95592.16;4995920;28;20049;-65
2021/10/19 09:20:46;;;;;;;6.90;6.22;;;;;;;24.71;22.61;95599.19;5005268;28;20041;-62
2021/10/19 09:23:14;;;;;;;7.30;6.60;;;;;;;24.29;23.46;95594.38;5015508;28;20061;-57
2021/10/19 09:25:44;;;;;;;8.90;6.65;;;;;;;23.61;24.44;95596.34;5015319;28;20428;-61
2021/10/19 09:28:13;;;;;;;9.05;6.70;;;;;;;23.68;23.80;95586.66;4996506;28;20050;-61
2021/10/19 09:30:51;;;;;;;7.57;6.20;;;;;;;25.30;21.72;95584.09;5005263;28;20046;-64
2021/10/19 09:33:20;;;;;;;7.00;6.30;;;;;;;25.56;21.65;95586.16;4995990;28;20054;-56
2021/10/19 09:35:52;;;;;;;7.07;6.38;;;;;;;25.47;21.40;95581.00;5012166;28;20364;-55
2021/10/19 09:38:19;;;;;;;7.72;5.70;;;;;;;25.47;21.40;95578.31;5015380;28;20046;-61
2021/10/19 09:40:49;;;;;;;11.25;6.50;;;;;;;25.70;20.94;95581.09;5014481;28;20057;-60
2021/10/19 09:43:19;;;;;;;8.07;6.10;;;;;;;25.87;21.50;95577.22;5014621;28;20519;-60
2021/10/19 09:45:52;;;;;;;8.88;6.60;;;;;;;25.77;21.73;95567.88;5015533;28;20459;-62
2021/10/19 09:48:31;;;;;;;6.70;5.75;;;;;;;25.65;21.81;95574.09;5015033;28;20049;-55
2021/10/19 09:51:00;;;;;;;10.35;6.40;;;;;;;26.62;19.52;95564.00;5014544;28;20060;-58
2021/10/19 09:53:28;;;;;;;7.90;6.22;;;;;;;26.46;20.77;95565.25;5014887;28;20065;-66
2021/10/19 09:55:57;;;;;;;13.25;6.63;;;;;;;26.09;22.55;95565.78;5015103;28;20050;-56
2021/10/19 09:58:24;;;;;;;7.63;6.38;;;;;;;25.21;22.27;95557.53;5014121;28;20453;-56
2021/10/19 10:00:52;;;;;;;7.25;6.00;;;;;;;26.36;22.65;95561.28;5015004;28;20050;-53
2021/10/19 10:03:19;;;;;;;8.65;5.70;;;;;;;25.88;21.84;95557.34;5014597;28;20057;-60
2021/10/19 10:05:47;;;;;;;6.50;5.85;;;;;;;26.32;20.49;95563.88;5014509;28;20435;-60
2021/10/19 10:08:21;;;;;;;8.02;6.20;;;;;;;26.76;21.25;95562.66;5014500;28;20042;-62
2021/10/19 10:10:56;;;;;;;7.40;5.82;;;;;;;25.12;20.82;95544.38;5001807;28;20060;-58
2021/10/19 10:13:24;;;;;;;7.20;5.30;;;;;;;26.58;21.58;95549.75;5009969;28;20073;-60
2021/10/19 10:15:51;;;;;;;7.07;5.60;;;;;;;26.53;20.99;95549.28;4995425;28;20323;-59
2021/10/19 10:18:32;;;;;;;6.07;5.03;;;;;;;26.55;20.48;95541.66;4998746;28;20465;-55
2021/10/19 10:21:09;;;;;;;7.25;5.90;;;;;;;26.00;19.85;95541.88;5014283;28;20045;-61
2021/10/19 10:23:36;;;;;;;7.10;5.53;;;;;;;26.93;21.07;95536.09;5013040;28;20052;-62
2021/10/19 10:26:05;;;;;;;7.65;5.22;;;;;;;26.80;20.46;95531.28;5012892;28;20077;-60
2021/10/19 10:28:34;;;;;;;7.97;5.43;;;;;;;26.61;19.28;95532.94;5014015;28;20045;-62
2021/10/19 10:31:06;;;;;;;7.13;5.68;;;;;;;27.44;19.41;95532.94;5013764;28;20046;-62
2021/10/19 10:33:35;;;;;;;5.72;5.18;;;;;;;27.27;19.70;95528.13;5014430;28;20050;-60
2021/10/19 10:36:08;;;;;;;9.10;5.80;;;;;;;26.78;19.30;95528.97;5013777;28;20480;-62
2021/10/19 10:38:36;;;;;;;7.20;5.57;;;;;;;27.24;19.41;95518.09;5013815;28;20042;-60
2021/10/19 10:41:12;;;;;;;5.57;5.07;;;;;;;26.34;20.93;95517.97;5013566;28;20499;-63
2021/10/19 10:43:39;;;;;;;5.93;5.00;;;;;;;26.05;19.56;95516.72;5013840;28;20053;-63
2021/10/19 10:46:08;;;;;;;6.80;5.47;;;;;;;25.97;19.65;95506.97;5012242;28;20046;-59
2021/10/19 10:48:37;;;;;;;34.75;31.27;;;;;;;25.95;20.85;95510.03;5013428;28;20045;-57
2021/10/19 10:51:05;;;;;;;8.70;5.63;;;;;;;26.38;20.39;95508.09;5012772;28;20444;-59
2021/10/19 10:53:37;;;;;;;6.95;5.22;;;;;;;26.70;19.39;95505.88;5014185;28;20057;-59
2021/10/19 10:56:05;;;;;;;5.68;5.05;;;;;;;26.89;21.07;95503.06;5013809;28;20056;-62
2021/10/19 10:58:35;;;;;;;6.05;5.45;;;;;;;26.77;20.23;95510.56;5013048;28;20061;-62
2021/10/19 11:01:28;;;;;;;6.45;5.55;;;;;;;26.94;20.85;95510.81;5013137;28;20054;-59
2021/10/19 11:04:10;;;;;;;5.57;5.03;;;;;;;27.41;20.19;95506.03;5013605;28;20053;-61
2021/10/19 11:06:40;;;;;;;8.10;5.50;;;;;;;26.83;20.53;95507.22;5013560;28;20049;-62
2021/10/19 11:09:12;;;;;;;6.13;5.30;;;;;;;26.58;20.91;95508.78;5012859;28;20053;-59
2021/10/19 11:11:45;;;;;;;6.43;5.47;;;;;;;26.57;19.57;95507.22;5009765;28;20050;-65
2021/10/19 11:14:23;;;;;;;6.53;5.43;;;;;;;27.89;19.13;95504.28;5011433;28;20097;-64
2021/10/19 11:16:55;;;;;;;5.78;5.28;;;;;;;28.15;17.13;95496.06;5005203;28;20049;-63
2021/10/19 11:19:28;;;;;;;5.97;5.38;;;;;;;27.99;18.28;95479.41;5003751;28;20049;-61
2021/10/19 11:22:02;;;;;;;6.25;5.13;;;;;;;27.46;19.00;95485.00;5005070;28;20057;-62
2021/10/19 11:24:33;;;;;;;6.93;5.05;;;;;;;27.06;19.92;95490.28;4997799;28;20061;-59
2021/10/19 11:27:02;;;;;;;6.35;4.78;;;;;;;26.89;20.53;95486.22;4994051;28;20046;-61
2021/10/19 11:29:34;;;;;;;6.03;4.85;;;;;;;27.50;19.80;95493.88;5004030;28;20046;-60
2021/10/19 11:32:02;;;;;;;52.40;37.80;;;;;;;27.32;18.93;95482.94;5013376;28;20061;-60